createdAt,value
2022-10-18T00:02:13.541Z,9.10
2022-10-18T00:04:40.620Z,9.10
2022-10-18T00:07:07.566Z,9.00
2022-10-18T00:09:34.494Z,9.00
2022-10-18T00:12:01.551Z,9.00
2022-10-18T00:14:28.377Z,9.00
2022-10-18T00:16:55.182Z,9.00
2022-10-18T00:19:25.843Z,9.00
2022-10-18T00:21:55.517Z,8.90
2022-10-18T00:24:22.406Z,8.90
2022-10-18T00:26:49.269Z,9.00
2022-10-18T00:29:16.527Z,9.00
2022-10-18T00:31:43.977Z,9.00
2022-10-18T00:34:15.538Z,8.90
2022-10-18T00:36:42.969Z,9.00
2022-10-18T00:39:14.384Z,9.00
2022-10-18T00:41:41.678Z,8.90
2022-10-18T00:44:11.372Z,9.00
2022-10-18T00:46:39.453Z,9.00
2022-10-18T00:49:25.329Z,8.90
2022-10-18T00:51:57.488Z,8.80
2022-10-18T00:54:24.884Z,8.80
2022-10-18T00:56:51.975Z,8.80
2022-10-18T00:59:19.223Z,8.80
2022-10-18T01:01:46.351Z,8.80
2022-10-18T01:04:17.511Z,8.70
2022-10-18T01:07:03.297Z,8.70
2022-10-18T01:09:42.221Z,8.80
2022-10-18T01:12:24.970Z,8.70
2022-10-18T01:15:03.374Z,8.80
2022-10-18T01:17:30.530Z,8.70
2022-10-18T01:19:57.673Z,8.70
2022-10-18T01:22:29.508Z,8.70
2022-10-18T01:24:56.415Z,8.60
2022-10-18T01:27:39.608Z,8.60
2022-10-18T01:30:21.508Z,8.70
2022-10-18T01:32:50.610Z,8.70
2022-10-18T01:35:19.562Z,8.70
2022-10-18T01:37:48.208Z,8.70
2022-10-18T01:40:17.931Z,8.70
2022-10-18T01:42:46.710Z,8.70
2022-10-18T01:45:14.401Z,8.80
2022-10-18T01:47:42.575Z,8.80
2022-10-18T01:50:09.448Z,8.80
2022-10-18T01:52:36.291Z,8.80
2022-10-18T01:55:03.578Z,8.70
2022-10-18T01:57:37.638Z,8.70
2022-10-18T02:00:04.568Z,8.70
2022-10-18T02:02:50.172Z,8.70
2022-10-18T02:05:36.132Z,8.70
2022-10-18T02:08:12.423Z,8.70
2022-10-18T02:10:48.186Z,8.80
2022-10-18T02:13:16.352Z,8.80
2022-10-18T02:15:44.902Z,8.70
2022-10-18T02:18:13.827Z,8.70
2022-10-18T02:20:41.389Z,8.70
2022-10-18T02:23:09.053Z,8.60
2022-10-18T02:25:36.309Z,8.60
2022-10-18T02:28:04.061Z,8.60
2022-10-18T02:30:35.947Z,8.60
2022-10-18T02:33:05.540Z,8.60
2022-10-18T02:35:35.543Z,8.50
2022-10-18T02:38:02.954Z,8.50
2022-10-18T02:40:30.251Z,8.50
2022-10-18T02:42:58.145Z,8.50
2022-10-18T02:45:25.929Z,8.40
2022-10-18T02:47:53.219Z,8.50
2022-10-18T02:50:20.088Z,8.50
2022-10-18T02:52:46.926Z,8.50
2022-10-18T02:55:13.828Z,8.50
2022-10-18T02:57:40.761Z,8.50
2022-10-18T03:00:08.033Z,8.50
2022-10-18T03:02:35.039Z,8.50
2022-10-18T03:05:02.104Z,8.50
2022-10-18T03:07:29.158Z,8.50
2022-10-18T03:09:56.197Z,8.50
2022-10-18T03:12:23.074Z,8.50
2022-10-18T03:14:49.960Z,8.50
2022-10-18T03:17:16.761Z,8.50
2022-10-18T03:19:43.693Z,8.50
2022-10-18T03:22:10.616Z,8.50
2022-10-18T03:24:37.531Z,8.50
2022-10-18T03:27:04.386Z,8.50
2022-10-18T03:29:31.286Z,8.50
2022-10-18T03:31:58.140Z,8.60
2022-10-18T03:34:25.072Z,8.60
2022-10-18T03:36:51.989Z,8.60
2022-10-18T03:39:18.862Z,8.50
2022-10-18T03:41:45.756Z,8.50
2022-10-18T03:44:12.564Z,8.50
2022-10-18T03:46:39.407Z,8.50
2022-10-18T03:49:06.314Z,8.50
2022-10-18T03:51:33.165Z,8.50
2022-10-18T03:54:00.901Z,8.50
2022-10-18T03:56:27.793Z,8.50
2022-10-18T03:58:54.681Z,8.50
2022-10-18T04:01:21.555Z,8.50
2022-10-18T04:03:48.523Z,8.50
2022-10-18T04:06:15.457Z,8.50
2022-10-18T04:08:42.305Z,8.50
2022-10-18T04:11:10.943Z,8.50
2022-10-18T04:13:38.138Z,8.50
2022-10-18T04:16:05.070Z,8.40
2022-10-18T04:18:32.051Z,8.40
2022-10-18T04:20:59.075Z,8.50
2022-10-18T04:23:25.915Z,8.50
2022-10-18T04:25:52.779Z,8.50
2022-10-18T04:28:19.740Z,8.50
2022-10-18T04:30:52.856Z,8.40
2022-10-18T04:33:19.852Z,8.40
2022-10-18T04:35:46.988Z,8.50
2022-10-18T04:38:16.529Z,8.40
2022-10-18T04:40:43.450Z,8.50
2022-10-18T04:43:10.329Z,8.50
2022-10-18T04:45:37.188Z,8.50
2022-10-18T04:48:04.211Z,8.50
2022-10-18T04:50:31.165Z,8.50
2022-10-18T04:52:58.104Z,8.50
2022-10-18T04:55:24.992Z,8.50
2022-10-18T04:57:52.620Z,8.40
2022-10-18T05:00:19.484Z,8.40
2022-10-18T05:02:46.464Z,8.30
2022-10-18T05:05:14.249Z,8.40
2022-10-18T05:07:41.396Z,8.30
2022-10-18T05:10:08.540Z,8.30
2022-10-18T05:12:35.571Z,8.30
2022-10-18T05:15:02.705Z,8.20
2022-10-18T05:17:29.563Z,8.20
2022-10-18T05:19:56.379Z,8.30
2022-10-18T05:22:23.252Z,8.20
2022-10-18T05:24:50.142Z,8.10
2022-10-18T05:27:16.992Z,8.10
2022-10-18T05:29:44.249Z,8.10
2022-10-18T05:32:11.240Z,8.10
2022-10-18T05:34:38.076Z,8.00
2022-10-18T05:37:04.978Z,8.00
2022-10-18T05:39:31.923Z,7.90
2022-10-18T05:41:59.786Z,7.90
2022-10-18T05:44:26.807Z,7.90
2022-10-18T05:46:53.711Z,7.90
2022-10-18T05:49:20.548Z,7.90
2022-10-18T05:51:47.563Z,7.90
2022-10-18T05:54:14.550Z,8.00
2022-10-18T05:56:41.841Z,8.00
2022-10-18T05:59:12.379Z,8.00
2022-10-18T06:01:40.284Z,8.10
2022-10-18T06:04:07.582Z,8.10
2022-10-18T06:06:34.542Z,8.10
2022-10-18T06:09:03.372Z,8.20
2022-10-18T06:11:30.547Z,8.20
2022-10-18T06:13:58.374Z,8.30
2022-10-18T06:16:31.259Z,8.30
2022-10-18T06:19:00.071Z,8.30
2022-10-18T06:21:27.694Z,8.40
2022-10-18T06:23:55.673Z,8.40
2022-10-18T06:26:22.908Z,8.40
2022-10-18T06:28:49.841Z,8.40
2022-10-18T06:31:16.777Z,8.40
2022-10-18T06:33:43.813Z,8.50
2022-10-18T06:36:11.606Z,8.50
2022-10-18T06:38:38.496Z,8.50
2022-10-18T06:41:06.468Z,8.50
2022-10-18T06:43:33.751Z,8.60
2022-10-18T06:46:05.678Z,8.60
2022-10-18T06:48:32.916Z,8.60
2022-10-18T06:51:01.125Z,8.70
2022-10-18T06:53:29.335Z,8.60
2022-10-18T06:56:02.190Z,8.70
2022-10-18T06:58:29.879Z,8.70
2022-10-18T07:00:57.069Z,8.70
2022-10-18T07:03:23.961Z,8.80
2022-10-18T07:05:50.783Z,8.70
2022-10-18T07:08:17.973Z,8.70
2022-10-18T07:10:52.216Z,8.70
2022-10-18T07:13:31.951Z,8.70
2022-10-18T07:16:04.178Z,8.70
2022-10-18T07:18:31.103Z,8.70
2022-10-18T07:20:57.975Z,8.70
2022-10-18T07:23:24.788Z,8.70
2022-10-18T07:25:51.869Z,8.80
2022-10-18T07:28:18.780Z,8.80
2022-10-18T07:30:45.666Z,8.80
2022-10-18T07:33:12.764Z,8.80
2022-10-18T07:35:39.618Z,8.80
2022-10-18T07:38:06.491Z,8.80
2022-10-18T07:40:33.358Z,8.90
2022-10-18T07:43:04.452Z,8.90
2022-10-18T07:45:32.557Z,9.00
2022-10-18T07:47:59.485Z,9.00
2022-10-18T07:50:26.371Z,9.00
2022-10-18T07:52:53.311Z,9.00
2022-10-18T07:55:20.201Z,9.00
2022-10-18T07:57:47.091Z,9.00
2022-10-18T08:00:14.104Z,9.00
2022-10-18T08:02:40.888Z,9.00
2022-10-18T08:05:07.855Z,9.00
2022-10-18T08:07:34.962Z,9.00
2022-10-18T08:10:01.908Z,9.00
2022-10-18T08:12:28.770Z,9.00
2022-10-18T08:14:55.642Z,9.00
2022-10-18T08:17:22.458Z,9.10
2022-10-18T08:19:58.560Z,9.10
2022-10-18T08:22:36.108Z,9.10
2022-10-18T08:25:03.111Z,9.10
2022-10-18T08:27:30.093Z,9.10
2022-10-18T08:29:57.112Z,9.20
2022-10-18T08:32:24.103Z,9.20
2022-10-18T08:34:50.973Z,9.20
2022-10-18T08:37:18.029Z,9.20
2022-10-18T08:39:44.998Z,9.20
2022-10-18T08:42:11.929Z,9.20
2022-10-18T08:44:43.561Z,9.20
2022-10-18T08:47:15.889Z,9.30
2022-10-18T08:49:50.599Z,9.30
2022-10-18T08:52:36.120Z,9.30
2022-10-18T08:55:21.923Z,9.40
2022-10-18T08:57:49.603Z,9.40
2022-10-18T09:00:17.251Z,9.40
2022-10-18T09:02:52.802Z,9.50
2022-10-18T09:05:19.695Z,9.50
2022-10-18T09:08:01.461Z,9.50
2022-10-18T09:10:45.735Z,9.50
2022-10-18T09:13:21.623Z,9.60
2022-10-18T09:15:48.549Z,9.60
2022-10-18T09:18:30.594Z,9.60
2022-10-18T09:20:58.610Z,9.70
2022-10-18T09:23:40.662Z,9.60
2022-10-18T09:26:14.044Z,9.70
2022-10-18T09:28:53.001Z,9.80
2022-10-18T09:31:19.879Z,9.80
2022-10-18T09:34:02.566Z,9.80
2022-10-18T09:36:35.792Z,9.80
2022-10-18T09:39:09.815Z,9.80
2022-10-18T09:41:39.756Z,9.90
2022-10-18T09:44:09.718Z,9.90
2022-10-18T09:46:42.199Z,10.00
2022-10-18T09:49:38.390Z,9.90
2022-10-18T09:52:08.338Z,10.00
2022-10-18T09:54:39.395Z,9.90
2022-10-18T09:57:11.314Z,10.00
2022-10-18T09:59:42.594Z,10.00
2022-10-18T10:02:14.338Z,10.00
2022-10-18T10:04:41.158Z,10.00
2022-10-18T10:07:17.730Z,10.00
2022-10-18T10:10:07.883Z,10.00
2022-10-18T10:12:35.927Z,10.10
2022-10-18T10:15:23.232Z,10.10
2022-10-18T10:18:13.109Z,10.20
2022-10-18T10:20:45.329Z,10.10
2022-10-18T10:23:21.357Z,10.20
2022-10-18T10:25:53.342Z,10.20
2022-10-18T10:28:22.152Z,10.10
2022-10-18T10:30:49.072Z,10.20
2022-10-18T10:33:30.677Z,10.20
2022-10-18T10:36:01.425Z,10.20
2022-10-18T10:38:29.904Z,10.20
2022-10-18T10:40:57.255Z,10.20
2022-10-18T10:43:37.562Z,10.20
2022-10-18T10:46:08.466Z,10.20
2022-10-18T10:49:34.597Z,10.30
2022-10-18T10:52:02.467Z,10.20
2022-10-18T10:54:38.955Z,10.20
2022-10-18T10:57:12.431Z,10.20
2022-10-18T10:59:49.786Z,10.20
2022-10-18T11:02:20.744Z,10.20
2022-10-18T11:04:54.421Z,10.20
2022-10-18T11:07:27.237Z,10.20
2022-10-18T11:10:11.209Z,10.30
2022-10-18T11:12:43.027Z,10.30
2022-10-18T11:15:10.569Z,10.20
2022-10-18T11:17:43.624Z,10.20
2022-10-18T11:20:12.680Z,10.30
2022-10-18T11:22:44.217Z,10.30
2022-10-18T11:25:15.044Z,10.20
2022-10-18T11:27:45.428Z,10.30
2022-10-18T11:30:36.868Z,10.20
2022-10-18T11:33:15.807Z,10.20
2022-10-18T11:36:03.569Z,10.30
2022-10-18T11:38:49.707Z,10.30
2022-10-18T11:41:16.534Z,10.30
2022-10-18T11:44:01.818Z,10.30
2022-10-18T11:46:38.956Z,10.30
2022-10-18T11:49:05.763Z,10.30
2022-10-18T11:52:07.808Z,10.40
2022-10-18T11:54:50.925Z,10.40
2022-10-18T11:57:26.981Z,10.40
2022-10-18T11:59:53.812Z,10.30
2022-10-18T12:02:39.090Z,10.30
2022-10-18T12:05:24.276Z,10.40
2022-10-18T12:08:07.525Z,10.30
2022-10-18T12:10:52.849Z,10.40
2022-10-18T12:13:25.607Z,10.40
2022-10-18T12:15:52.661Z,10.40
2022-10-18T12:18:21.953Z,10.40
2022-10-18T12:20:49.789Z,10.40
2022-10-18T12:23:17.969Z,10.40
2022-10-18T12:25:55.325Z,10.40
2022-10-18T12:28:25.264Z,10.40
2022-10-18T12:31:04.322Z,10.40
2022-10-18T12:33:35.518Z,10.40
2022-10-18T12:36:20.956Z,10.40
2022-10-18T12:38:50.062Z,10.40
2022-10-18T12:41:20.549Z,10.40
2022-10-18T12:43:51.548Z,10.40
2022-10-18T12:46:18.511Z,10.40
2022-10-18T12:48:48.851Z,10.40
2022-10-18T12:51:17.681Z,10.40
2022-10-18T12:53:46.181Z,10.30
2022-10-18T12:56:28.099Z,10.30
2022-10-18T12:59:13.639Z,10.30
2022-10-18T13:01:55.459Z,10.30
2022-10-18T13:04:28.608Z,10.30
2022-10-18T13:06:58.652Z,10.30
2022-10-18T13:09:26.757Z,10.30
2022-10-18T13:12:02.038Z,10.20
2022-10-18T13:14:44.097Z,10.20
2022-10-18T13:17:26.059Z,10.20
2022-10-18T13:20:07.789Z,10.20
2022-10-18T13:22:58.650Z,10.30
2022-10-18T13:25:34.705Z,10.30
2022-10-18T13:28:20.293Z,10.30
2022-10-18T13:31:06.096Z,10.20
2022-10-18T13:33:32.930Z,10.20
2022-10-18T13:36:05.515Z,10.10
2022-10-18T13:38:47.920Z,10.10
2022-10-18T13:41:16.665Z,10.20
2022-10-18T13:43:53.042Z,10.10
2022-10-18T13:46:20.081Z,10.10
2022-10-18T13:48:47.917Z,10.10
2022-10-18T13:51:33.728Z,10.10
2022-10-18T13:54:26.786Z,10.10
2022-10-18T13:57:12.256Z,10.10
2022-10-18T13:59:39.032Z,10.10
2022-10-18T14:02:16.685Z,10.10
2022-10-18T14:05:23.636Z,10.10
2022-10-18T14:07:51.564Z,10.00
2022-10-18T14:10:43.823Z,10.00
2022-10-18T14:13:19.778Z,10.00
2022-10-18T14:15:48.759Z,9.90
2022-10-18T14:18:18.507Z,9.90
2022-10-18T14:21:01.495Z,9.90
2022-10-18T14:23:37.211Z,10.00
2022-10-18T14:26:14.509Z,10.00
2022-10-18T14:28:59.218Z,9.90
2022-10-18T14:31:27.048Z,9.80
2022-10-18T14:33:57.908Z,9.90
2022-10-18T14:36:27.261Z,9.80
2022-10-18T14:38:56.511Z,9.80
2022-10-18T14:41:29.453Z,9.80
2022-10-18T14:44:18.638Z,9.70
2022-10-18T14:46:46.768Z,9.70
2022-10-18T14:49:14.467Z,9.70
2022-10-18T14:51:42.484Z,9.70
2022-10-18T14:54:20.470Z,9.80
2022-10-18T14:56:47.931Z,9.70
2022-10-18T14:59:19.746Z,9.70
2022-10-18T15:01:52.508Z,9.70
2022-10-18T15:04:21.064Z,9.60
2022-10-18T15:06:49.942Z,9.60
2022-10-18T15:09:20.058Z,9.60
2022-10-18T15:11:48.178Z,9.60
2022-10-18T15:14:16.930Z,9.60
2022-10-18T15:16:44.016Z,9.50
2022-10-18T15:19:13.775Z,9.40
2022-10-18T15:21:51.817Z,9.40
2022-10-18T15:24:26.327Z,9.40
2022-10-18T15:26:54.185Z,9.30
2022-10-18T15:29:21.627Z,9.30
2022-10-18T15:31:49.431Z,9.30
2022-10-18T15:34:21.629Z,9.30
2022-10-18T15:36:49.632Z,9.30
2022-10-18T15:39:21.213Z,9.40
2022-10-18T15:41:50.238Z,9.30
2022-10-18T15:44:20.466Z,9.30
2022-10-18T15:46:48.027Z,9.30
2022-10-18T15:49:23.943Z,9.20
2022-10-18T15:51:55.524Z,9.20
2022-10-18T15:54:30.328Z,9.20
2022-10-18T15:56:57.371Z,9.10
2022-10-18T15:59:26.329Z,9.10
2022-10-18T16:01:53.538Z,9.10
2022-10-18T16:04:27.901Z,9.10
2022-10-18T16:06:56.124Z,9.00
2022-10-18T16:09:24.315Z,9.00
2022-10-18T16:11:56.437Z,8.90
2022-10-18T16:14:24.419Z,8.90
2022-10-18T16:16:52.902Z,8.90
2022-10-18T16:19:21.355Z,8.80
2022-10-18T16:21:48.768Z,8.80
2022-10-18T16:24:15.605Z,8.90
2022-10-18T16:26:42.488Z,8.80
2022-10-18T16:29:16.519Z,8.80
2022-10-18T16:31:43.373Z,8.80
2022-10-18T16:34:11.379Z,8.70
2022-10-18T16:36:38.383Z,8.70
2022-10-18T16:39:07.861Z,8.70
2022-10-18T16:41:34.692Z,8.60
2022-10-18T16:44:01.540Z,8.50
2022-10-18T16:46:29.836Z,8.40
2022-10-18T16:48:57.065Z,8.50
2022-10-18T16:51:24.118Z,8.50
2022-10-18T16:53:51.262Z,8.50
2022-10-18T16:56:19.943Z,8.50
2022-10-18T16:58:47.037Z,8.40
2022-10-18T17:01:15.465Z,8.40
2022-10-18T17:03:42.456Z,8.40
2022-10-18T17:06:16.611Z,8.40
2022-10-18T17:08:43.469Z,8.30
2022-10-18T17:11:11.345Z,8.30
2022-10-18T17:13:38.652Z,8.30
2022-10-18T17:16:05.676Z,8.20
2022-10-18T17:18:32.640Z,8.10
2022-10-18T17:21:03.241Z,8.20
2022-10-18T17:23:30.600Z,8.20
2022-10-18T17:26:06.812Z,8.10
2022-10-18T17:28:42.132Z,8.20
2022-10-18T17:31:09.113Z,8.10
2022-10-18T17:33:35.982Z,8.10
2022-10-18T17:36:03.184Z,8.10
2022-10-18T17:38:30.004Z,8.10
2022-10-18T17:40:57.337Z,8.10
2022-10-18T17:43:24.148Z,8.00
2022-10-18T17:45:54.865Z,8.00
2022-10-18T17:48:21.811Z,8.00
2022-10-18T17:50:48.785Z,8.00
2022-10-18T17:53:16.852Z,8.00
2022-10-18T17:55:43.956Z,8.00
2022-10-18T17:58:10.941Z,8.00
2022-10-18T18:00:37.785Z,7.90
2022-10-18T18:03:04.821Z,7.90
2022-10-18T18:05:32.568Z,7.80
2022-10-18T18:08:03.568Z,7.80
2022-10-18T18:10:34.373Z,7.70
2022-10-18T18:13:01.509Z,7.70
2022-10-18T18:15:28.465Z,7.70
2022-10-18T18:17:57.449Z,7.60
2022-10-18T18:20:24.935Z,7.60
2022-10-18T18:22:51.875Z,7.60
2022-10-18T18:25:18.718Z,7.50
2022-10-18T18:27:45.755Z,7.50
2022-10-18T18:30:13.159Z,7.40
2022-10-18T18:32:40.012Z,7.40
2022-10-18T18:35:07.126Z,7.30
2022-10-18T18:37:34.021Z,7.30
2022-10-18T18:40:01.035Z,7.30
2022-10-18T18:42:27.842Z,7.30
2022-10-18T18:44:54.636Z,7.20
2022-10-18T18:47:23.561Z,7.20
2022-10-18T18:49:51.789Z,7.20
2022-10-18T18:52:18.604Z,7.20
2022-10-18T18:54:45.533Z,7.20
2022-10-18T18:57:12.396Z,7.20
2022-10-18T18:59:39.220Z,7.10
2022-10-18T19:02:06.185Z,7.10
2022-10-18T19:04:33.085Z,7.10
2022-10-18T19:06:59.940Z,7.10
2022-10-18T19:09:27.584Z,7.10
2022-10-18T19:11:55.415Z,7.10
2022-10-18T19:14:24.528Z,7.10
2022-10-18T19:16:53.738Z,7.10
2022-10-18T19:19:24.974Z,7.10
2022-10-18T19:21:53.682Z,7.10
2022-10-18T19:24:21.283Z,7.10
2022-10-18T19:26:49.305Z,7.10
2022-10-18T19:29:21.534Z,7.00
2022-10-18T19:31:49.015Z,7.10
2022-10-18T19:34:16.496Z,7.00
2022-10-18T19:36:44.819Z,7.00
2022-10-18T19:39:19.242Z,7.00
2022-10-18T19:41:49.985Z,6.90
2022-10-18T19:44:17.366Z,6.90
2022-10-18T19:46:44.313Z,7.00
2022-10-18T19:49:11.176Z,7.00
2022-10-18T19:51:38.527Z,6.90
2022-10-18T19:54:05.564Z,6.90
2022-10-18T19:56:32.527Z,7.00
2022-10-18T19:58:59.765Z,7.00
2022-10-18T20:01:27.543Z,7.00
2022-10-18T20:03:54.683Z,7.00
2022-10-18T20:06:21.951Z,7.00
2022-10-18T20:08:50.158Z,7.00
2022-10-18T20:11:18.576Z,7.00
2022-10-18T20:13:45.538Z,7.00
2022-10-18T20:16:13.585Z,6.90
2022-10-18T20:18:43.315Z,6.90
2022-10-18T20:21:11.098Z,6.90
2022-10-18T20:23:38.594Z,6.80
2022-10-18T20:26:06.732Z,6.90
2022-10-18T20:28:33.843Z,6.80
2022-10-18T20:31:01.435Z,6.80
2022-10-18T20:33:28.375Z,6.80
2022-10-18T20:35:55.477Z,6.70
2022-10-18T20:38:22.472Z,6.70
2022-10-18T20:40:49.525Z,6.70
2022-10-18T20:43:16.326Z,6.70
2022-10-18T20:45:43.109Z,6.60
2022-10-18T20:48:09.981Z,6.50
2022-10-18T20:50:40.098Z,6.50
2022-10-18T20:53:06.934Z,6.40
2022-10-18T20:55:33.778Z,6.40
2022-10-18T20:58:00.602Z,6.40
2022-10-18T21:00:27.503Z,6.30
2022-10-18T21:02:57.514Z,6.30
2022-10-18T21:05:24.348Z,6.30
2022-10-18T21:07:51.372Z,6.30
2022-10-18T21:10:18.350Z,6.20
2022-10-18T21:12:47.356Z,6.20
2022-10-18T21:15:14.406Z,6.20
2022-10-18T21:17:41.210Z,6.20
2022-10-18T21:20:08.398Z,6.20
2022-10-18T21:22:35.586Z,6.20
2022-10-18T21:25:02.494Z,6.20
2022-10-18T21:27:29.356Z,6.20
2022-10-18T21:29:56.174Z,6.10
2022-10-18T21:32:23.145Z,6.20
2022-10-18T21:34:49.949Z,6.10
2022-10-18T21:37:16.873Z,6.10
2022-10-18T21:39:44.012Z,6.10
2022-10-18T21:42:11.274Z,6.10
2022-10-18T21:44:38.108Z,6.10
2022-10-18T21:47:05.036Z,6.10
2022-10-18T21:49:35.242Z,6.00
2022-10-18T21:52:05.551Z,6.00
2022-10-18T21:54:32.423Z,6.00
2022-10-18T21:56:59.208Z,6.00
2022-10-18T21:59:26.107Z,5.90
2022-10-18T22:01:52.943Z,5.90
2022-10-18T22:04:22.737Z,5.80
2022-10-18T22:06:49.710Z,5.80
2022-10-18T22:09:16.890Z,5.80
2022-10-18T22:11:45.656Z,5.80
2022-10-18T22:14:12.580Z,5.80
2022-10-18T22:16:39.464Z,5.70
2022-10-18T22:19:06.966Z,5.70
2022-10-18T22:21:34.175Z,5.50
2022-10-18T22:24:04.380Z,5.60
2022-10-18T22:26:33.282Z,5.60
2022-10-18T22:29:06.856Z,5.50
2022-10-18T22:31:35.453Z,5.50
2022-10-18T22:34:04.376Z,5.50
2022-10-18T22:36:31.620Z,5.40
2022-10-18T22:38:58.746Z,5.40
2022-10-18T22:41:25.623Z,5.40
2022-10-18T22:43:52.930Z,5.30
2022-10-18T22:46:20.119Z,5.30
2022-10-18T22:48:47.477Z,5.20
2022-10-18T22:51:14.297Z,5.30
2022-10-18T22:53:41.453Z,5.20
2022-10-18T22:56:10.251Z,5.20
2022-10-18T22:58:37.107Z,5.20
2022-10-18T23:01:08.498Z,5.20
2022-10-18T23:03:35.975Z,5.20
2022-10-18T23:06:03.253Z,5.10
2022-10-18T23:08:30.165Z,5.10
2022-10-18T23:10:58.538Z,5.10
2022-10-18T23:13:26.286Z,5.10
2022-10-18T23:15:53.368Z,5.00
2022-10-18T23:18:20.167Z,5.00
2022-10-18T23:20:47.002Z,5.00
2022-10-18T23:23:13.830Z,5.00
2022-10-18T23:25:40.878Z,5.00
2022-10-18T23:28:07.731Z,4.90
2022-10-18T23:30:34.829Z,4.90
2022-10-18T23:33:01.660Z,4.90
2022-10-18T23:35:29.091Z,4.90
2022-10-18T23:37:55.939Z,4.80
2022-10-18T23:40:22.805Z,4.80
2022-10-18T23:42:49.679Z,4.80
2022-10-18T23:45:16.612Z,4.80
2022-10-18T23:47:43.695Z,4.80
2022-10-18T23:50:10.543Z,4.70
2022-10-18T23:52:37.349Z,4.70
2022-10-18T23:55:04.309Z,4.70
2022-10-18T23:57:31.423Z,4.70
2022-10-18T23:59:58.565Z,4.60
